Air Navigation Services of Czech Republic
Airport: LKMT Updated:  25.03.2019 21:30:07  UTC
 METAR LKMT 25.03. 21:30 ...
METAR LKMT 252130Z VRB01KT 9999 SCT028 BKN045 02/M01 Q1017 NOSIG RMK REG QNH 1014=
 TAF LKMT 25.03. 17:00 ...
TAF LKMT 251700Z 2518/2700 33005KT 9999 BKN040      TEMPO 2518/2700 4000 SHRASN BKN016      PROB30 TEMPO 2518/2520 2500 SHRASN BKN009TCU      TEMPO 2612/2618 28012G22KT=